Time;durP1;ratioP1;P1;durP2;ratioP2;P2;SDS_P1;SDS_P2;PMS_P1;PMS_P2;Temp;Humidity;BMP_temperature;BMP_pressure;BME280_temperature;BME280_humidity;BME280_pressure;Samples;Min_cycle;Max_cycle;Signal;HPM_P1;HPM_P2
2023/06/05 00:01:22;;;;;;;;;;;;;;;32.42;33.23;96315.13;4957948;28;19970;-46
2023/06/05 00:03:53;;;;;;;;;;;;;;;32.55;33.19;96318.00;4972864;28;19972;-46
2023/06/05 00:06:21;;;;;;;;;;;;;;;32.74;33.01;96318.09;4962048;28;20374;-45
2023/06/05 00:08:50;;;;;;;;;;;;;;;32.58;33.14;96316.63;4971320;28;19969;-48
2023/06/05 00:11:18;;;;;;;;;;;;;;;32.68;33.00;96311.06;4960612;28;20352;-51
2023/06/05 00:13:47;;;;;;;;;;;;;;;32.62;32.82;96309.47;4970914;28;19953;-45
2023/06/05 00:16:16;;;;;;;;;;;;;;;32.42;32.96;96304.22;4965915;28;19957;-49
2023/06/05 00:18:45;;;;;;;;;;;;;;;32.35;33.08;96305.38;4965462;28;19968;-51
2023/06/05 00:21:13;;;;;;;;;;;;;;;32.31;33.11;96309.78;4965251;28;20634;-47
2023/06/05 00:23:41;;;;;;;;;;;;;;;32.43;32.93;96305.88;4962385;28;19961;-47
2023/06/05 00:26:09;;;;;;;;;;;;;;;32.03;33.44;96297.72;4977108;28;20598;-49
2023/06/05 00:28:38;;;;;;;;;;;;;;;32.21;33.14;96304.41;4956434;28;19965;-54
2023/06/05 00:31:06;;;;;;;;;;;;;;;32.03;33.72;96299.63;4968513;28;19953;-44
2023/06/05 00:33:36;;;;;;;;;;;;;;;31.99;33.58;96299.41;4957037;28;20074;-48
2023/06/05 00:36:04;;;;;;;;;;;;;;;32.17;33.17;96302.53;4964203;28;19958;-49
2023/06/05 00:38:33;;;;;;;;;;;;;;;31.78;33.61;96303.34;4960477;28;19976;-48
2023/06/05 00:41:02;;;;;;;;;;;;;;;31.54;33.83;96298.59;4967401;28;19965;-46
2023/06/05 00:43:30;;;;;;;;;;;;;;;32.06;33.49;96296.34;4962814;28;19969;-46
2023/06/05 00:45:59;;;;;;;;;;;;;;;32.41;32.99;96300.66;4962632;28;20410;-48
2023/06/05 00:48:27;;;;;;;;;;;;;;;31.44;34.46;96304.13;4953357;28;19958;-50
2023/06/05 00:50:57;;;;;;;;;;;;;;;30.98;35.17;96294.25;4956456;28;19969;-47
2023/06/05 00:53:25;;;;;;;;;;;;;;;31.12;34.81;96283.56;4961902;28;20341;-46
2023/06/05 00:55:53;;;;;;;;;;;;;;;31.36;34.75;96291.09;4957487;28;19965;-49
2023/06/05 00:58:21;;;;;;;;;;;;;;;31.55;34.46;96285.78;4955820;28;20002;-46
2023/06/05 01:00:51;;;;;;;;;;;;;;;31.18;35.05;96289.81;4958044;28;19961;-45
2023/06/05 01:03:19;;;;;;;;;;;;;;;31.31;35.44;96283.72;4957094;28;19968;-48
2023/06/05 01:05:49;;;;;;;;;;;;;;;31.41;34.91;96282.88;4959078;28;19968;-49
2023/06/05 01:08:24;;;;;;;;;;;;;;;32.25;33.84;96275.44;4953119;28;19968;-46
2023/06/05 01:10:53;;;;;;;;;;;;;;;31.77;34.86;96283.47;4955836;28;19957;-46
2023/06/05 01:13:22;;;;;;;;;;;;;;;31.60;34.85;96280.31;4961104;28;19958;-47
2023/06/05 01:15:52;;;;;;;;;;;;;;;32.15;34.28;96276.34;4956547;28;20379;-50
2023/06/05 01:18:22;;;;;;;;;;;;;;;32.05;34.83;96281.88;4956591;28;19926;-47
2023/06/05 01:20:50;;;;;;;;;;;;;;;32.28;34.03;96274.88;4960744;28;20367;-50
2023/06/05 01:23:25;;;;;;;;;;;;;;;32.27;33.96;96283.31;4957931;28;20053;-46
2023/06/05 01:25:53;;;;;;;;;;;;;;;32.49;34.04;96282.88;4962061;28;19961;-46
2023/06/05 01:28:22;;;;;;;;;;;;;;;32.79;33.53;96285.25;4963788;28;19957;-47
2023/06/05 01:30:52;;;;;;;;;;;;;;;32.72;33.88;96282.06;4956014;28;19972;-49
2023/06/05 01:33:25;;;;;;;;;;;;;;;32.31;34.54;96277.03;4954859;28;19968;-46
2023/06/05 01:35:53;;;;;;;;;;;;;;;32.32;34.15;96281.38;4952997;28;19968;-46
2023/06/05 01:38:25;;;;;;;;;;;;;;;31.90;35.03;96276.56;4955662;28;19965;-47
2023/06/05 01:40:53;;;;;;;;;;;;;;;32.46;34.12;96284.25;4963578;28;19972;-48
2023/06/05 01:43:21;;;;;;;;;;;;;;;32.62;34.02;96279.44;4966179;28;20354;-45
2023/06/05 01:45:50;;;;;;;;;;;;;;;32.62;34.17;96276.72;4956792;28;19966;-51
2023/06/05 01:48:18;;;;;;;;;;;;;;;32.31;34.59;96276.19;4960103;28;19973;-47
2023/06/05 01:50:46;;;;;;;;;;;;;;;32.34;34.55;96270.97;4963786;28;19962;-49
2023/06/05 01:53:16;;;;;;;;;;;;;;;32.31;34.43;96266.09;4956903;28;20359;-49
2023/06/05 01:55:46;;;;;;;;;;;;;;;32.14;34.82;96262.97;4956942;28;20377;-49
2023/06/05 01:58:15;;;;;;;;;;;;;;;32.14;34.83;96265.69;4957806;28;19961;-50
2023/06/05 02:00:45;;;;;;;;;;;;;;;32.06;34.78;96264.41;4966344;28;19969;-46
2023/06/05 02:03:15;;;;;;;;;;;;;;;32.64;34.21;96262.78;4959395;28;19962;-45
2023/06/05 02:05:43;;;;;;;;;;;;;;;32.54;34.34;96260.97;4961674;28;19969;-46
2023/06/05 02:08:13;;;;;;;;;;;;;;;32.38;34.53;96263.00;4959668;28;19969;-46
2023/06/05 02:10:43;;;;;;;;;;;;;;;32.25;34.39;96258.25;4959496;28;19984;-46
2023/06/05 02:13:15;;;;;;;;;;;;;;;32.06;35.18;96261.69;4965407;28;19954;-44
2023/06/05 02:15:44;;;;;;;;;;;;;;;31.86;35.26;96265.38;4952129;28;20453;-48
2023/06/05 02:18:13;;;;;;;;;;;;;;;32.17;34.96;96262.41;4961383;28;20437;-46
2023/06/05 02:20:41;;;;;;;;;;;;;;;32.20;35.05;96261.03;4963009;28;20414;-51
2023/06/05 02:23:09;;;;;;;;;;;;;;;31.64;35.58;96265.00;4965626;28;19964;-49
2023/06/05 02:25:38;;;;;;;;;;;;;;;31.65;36.07;96261.19;4965199;28;19992;-46
2023/06/05 02:28:06;;;;;;;;;;;;;;;31.71;35.89;96259.25;4952924;28;20054;-48
2023/06/05 02:30:35;;;;;;;;;;;;;;;31.64;36.01;96256.84;4966824;28;20521;-45
2023/06/05 02:33:03;;;;;;;;;;;;;;;32.03;35.66;96256.78;4955914;28;19969;-48
2023/06/05 02:35:31;;;;;;;;;;;;;;;31.89;35.37;96259.38;4963083;28;19965;-48
2023/06/05 02:37:59;;;;;;;;;;;;;;;31.88;35.61;96255.03;4953058;28;19961;-49
2023/06/05 02:40:27;;;;;;;;;;;;;;;32.24;35.10;96268.34;4961289;28;19978;-50
2023/06/05 02:43:14;;;;;;;;;;;;;;;31.74;35.93;96259.47;4969223;28;19957;-43
2023/06/05 02:45:43;;;;;;;;;;;;;;;32.16;35.19;96258.06;4957692;28;19962;-46
2023/06/05 02:48:11;;;;;;;;;;;;;;;31.91;35.64;96259.91;4955525;28;20331;-45
2023/06/05 02:50:40;;;;;;;;;;;;;;;31.97;35.36;96260.69;4955972;28;19961;-46
2023/06/05 02:53:08;;;;;;;;;;;;;;;31.65;35.77;96266.63;4959047;28;20436;-45
2023/06/05 02:55:36;;;;;;;;;;;;;;;32.16;35.23;96266.25;4956917;28;20535;-45
2023/06/05 02:58:05;;;;;;;;;;;;;;;32.15;35.06;96268.16;4957785;28;20231;-50
2023/06/05 03:00:38;;;;;;;;;;;;;;;32.07;35.30;96270.69;4964288;28;19933;-46
2023/06/05 03:03:11;;;;;;;;;;;;;;;32.28;35.01;96274.03;4960312;28;19930;-47
2023/06/05 03:05:44;;;;;;;;;;;;;;;32.22;35.18;96267.00;4968183;28;19965;-48
2023/06/05 03:08:12;;;;;;;;;;;;;;;31.68;36.21;96268.78;4951067;28;19961;-48
2023/06/05 03:10:40;;;;;;;;;;;;;;;32.13;35.31;96266.81;4962522;28;20394;-49
2023/06/05 03:13:08;;;;;;;;;;;;;;;31.95;35.66;96264.81;4964611;28;19961;-47
2023/06/05 03:15:36;;;;;;;;;;;;;;;31.85;35.79;96269.19;4958775;28;19965;-47
2023/06/05 03:18:04;;;;;;;;;;;;;;;31.44;36.57;96261.31;4955756;28;19973;-45
2023/06/05 03:20:34;;;;;;;;;;;;;;;31.87;36.11;96268.97;4962767;28;19968;-46
2023/06/05 03:23:02;;;;;;;;;;;;;;;31.42;36.61;96257.28;4964323;28;20402;-48
2023/06/05 03:25:30;;;;;;;;;;;;;;;31.66;36.38;96257.38;4963778;28;20358;-46
2023/06/05 03:27:58;;;;;;;;;;;;;;;31.15;37.22;96254.94;4955782;28;19961;-45
2023/06/05 03:30:26;;;;;;;;;;;;;;;31.51;37.22;96254.75;4961815;28;19966;-46
2023/06/05 03:32:54;;;;;;;;;;;;;;;31.10;38.03;96254.97;4959423;28;20410;-51
2023/06/05 03:35:22;;;;;;;;;;;;;;;30.55;38.63;96262.25;4961105;28;20350;-45
2023/06/05 03:37:51;;;;;;;;;;;;;;;31.00;38.05;96261.28;4955951;28;19958;-49
2023/06/05 03:40:19;;;;;;;;;;;;;;;30.90;38.29;96256.72;4972860;28;19961;-47
2023/06/05 03:42:48;;;;;;;;;;;;;;;30.78;38.42;96263.56;4960038;28;19958;-49
2023/06/05 03:45:16;;;;;;;;;;;;;;;31.34;37.61;96263.31;4964379;28;20368;-46
2023/06/05 03:47:48;;;;;;;;;;;;;;;31.50;37.29;96262.13;4957119;28;19969;-45
2023/06/05 03:50:17;;;;;;;;;;;;;;;31.92;36.69;96269.72;4952367;28;19969;-47
2023/06/05 03:52:52;;;;;;;;;;;;;;;31.36;37.61;96267.38;4964469;28;20359;-43
2023/06/05 03:55:21;;;;;;;;;;;;;;;31.63;37.03;96277.84;4955396;28;19985;-45
2023/06/05 03:57:49;;;;;;;;;;;;;;;31.36;37.87;96267.38;4951536;28;19965;-50
2023/06/05 04:00:17;;;;;;;;;;;;;;;31.73;36.76;96266.03;4959344;28;19965;-45
2023/06/05 04:02:46;;;;;;;;;;;;;;;31.07;38.36;96272.66;4961938;28;19968;-43
2023/06/05 04:05:15;;;;;;;;;;;;;;;32.00;36.84;96270.19;4959145;28;20371;-50
2023/06/05 04:07:43;;;;;;;;;;;;;;;32.04;36.27;96268.56;4958208;28;19953;-45
2023/06/05 04:10:11;;;;;;;;;;;;;;;32.02;36.45;96270.75;4954995;28;19991;-47
2023/06/05 04:12:40;;;;;;;;;;;;;;;31.86;36.67;96268.09;4962550;28;19961;-45
2023/06/05 04:15:10;;;;;;;;;;;;;;;32.18;36.18;96268.69;4960518;28;20363;-48
2023/06/05 04:17:38;;;;;;;;;;;;;;;31.82;36.74;96280.69;4975215;28;19968;-47
2023/06/05 04:20:10;;;;;;;;;;;;;;;31.80;36.45;96276.63;4957875;28;20437;-46
2023/06/05 04:22:38;;;;;;;;;;;;;;;31.75;36.58;96274.72;4968485;28;20071;-49
2023/06/05 04:25:06;;;;;;;;;;;;;;;31.88;36.51;96270.59;4961086;28;19961;-47
2023/06/05 04:27:35;;;;;;;;;;;;;;;31.96;36.26;96280.06;4970117;28;19976;-45
2023/06/05 04:30:05;;;;;;;;;;;;;;;32.32;35.53;96272.38;4959101;28;20426;-54
2023/06/05 04:32:34;;;;;;;;;;;;;;;32.47;35.06;96274.97;4962934;28;19965;-46
2023/06/05 04:35:02;;;;;;;;;;;;;;;32.49;35.02;96271.97;4965912;28;20350;-55
2023/06/05 04:37:30;;;;;;;;;;;;;;;32.81;34.30;96263.94;4965105;28;19965;-46
2023/06/05 04:39:59;;;;;;;;;;;;;;;33.04;34.04;96264.25;4962474;28;20198;-53
2023/06/05 04:42:27;;;;;;;;;;;;;;;32.84;33.95;96265.28;4959919;28;19984;-49
2023/06/05 04:44:57;;;;;;;;;;;;;;;32.42;34.57;96266.84;4962989;28;19973;-46
2023/06/05 04:47:26;;;;;;;;;;;;;;;32.64;34.33;96262.78;4964592;28;19970;-48
2023/06/05 04:49:54;;;;;;;;;;;;;;;31.74;35.28;96267.66;4961158;28;20618;-51
2023/06/05 04:52:23;;;;;;;;;;;;;;;32.57;34.45;96263.94;4963214;28;19965;-46
2023/06/05 04:54:51;;;;;;;;;;;;;;;32.06;34.85;96271.78;4967291;28;20859;-49
2023/06/05 04:57:19;;;;;;;;;;;;;;;31.74;34.82;96283.22;4963200;28;20021;-48
2023/06/05 04:59:47;;;;;;;;;;;;;;;31.48;35.40;96283.38;4964134;28;19969;-48
2023/06/05 05:02:15;;;;;;;;;;;;;;;32.26;34.18;96282.50;4958665;28;19966;-49
2023/06/05 05:04:45;;;;;;;;;;;;;;;32.33;34.11;96291.19;4959123;28;19973;-47
2023/06/05 05:07:15;;;;;;;;;;;;;;;32.07;34.35;96287.03;4963002;28;19998;-56
2023/06/05 05:09:43;;;;;;;;;;;;;;;33.16;33.21;96275.53;4958510;28;19969;-51
2023/06/05 05:12:11;;;;;;;;;;;;;;;33.70;32.31;96285.19;4971196;28;19961;-50
2023/06/05 05:14:39;;;;;;;;;;;;;;;33.59;32.20;96283.72;4964544;28;19960;-48
2023/06/05 05:17:08;;;;;;;;;;;;;;;33.29;32.72;96277.53;4962222;28;19976;-49
2023/06/05 05:19:39;;;;;;;;;;;;;;;34.73;31.19;96271.41;4960784;28;19954;-49
2023/06/05 05:22:08;;;;;;;;;;;;;;;34.82;30.69;96273.41;4964161;28;20531;-46
2023/06/05 05:24:37;;;;;;;;;;;;;;;35.09;30.23;96276.16;4955759;28;19969;-46
2023/06/05 05:27:05;;;;;;;;;;;;;;;33.96;31.72;96276.56;4966177;28;19957;-46
2023/06/05 05:29:33;;;;;;;;;;;;;;;35.63;29.59;96277.19;4960183;28;19976;-48
2023/06/05 05:32:01;;;;;;;;;;;;;;;35.80;29.44;96272.97;4960597;28;19969;-46
2023/06/05 05:34:29;;;;;;;;;;;;;;;34.18;30.93;96282.25;4968993;28;20000;-47
2023/06/05 05:36:57;;;;;;;;;;;;;;;33.95;31.18;96283.97;4964443;28;19965;-49
2023/06/05 05:39:27;;;;;;;;;;;;;;;35.54;29.86;96286.47;4961280;28;19961;-46
2023/06/05 05:41:55;;;;;;;;;;;;;;;35.62;29.32;96283.81;4966498;28;20398;-48
2023/06/05 05:44:23;;;;;;;;;;;;;;;33.87;31.57;96284.66;4969542;28;19972;-48
2023/06/05 05:46:51;;;;;;;;;;;;;;;35.75;29.58;96284.06;4971537;28;19965;-50
2023/06/05 05:49:19;;;;;;;;;;;;;;;35.58;29.65;96284.72;4960133;28;20362;-51
2023/06/05 05:51:47;;;;;;;;;;;;;;;33.86;30.90;96288.47;4956962;28;19965;-49
2023/06/05 05:54:15;;;;;;;;;;;;;;;34.42;30.67;96289.50;4966596;28;19969;-49
2023/06/05 05:56:44;;;;;;;;;;;;;;;34.48;30.71;96285.53;4960948;28;19969;-51
2023/06/05 05:59:12;;;;;;;;;;;;;;;35.99;29.59;96286.50;4958166;28;19958;-51
2023/06/05 06:01:42;;;;;;;;;;;;;;;35.57;29.90;96292.13;4957729;28;20351;-45
2023/06/05 06:04:10;;;;;;;;;;;;;;;35.84;29.54;96277.50;4961028;28;19973;-51
2023/06/05 06:06:39;;;;;;;;;;;;;;;35.01;31.19;96287.84;4963617;28;19972;-49
2023/06/05 06:09:08;;;;;;;;;;;;;;;34.88;30.69;96283.97;4962050;28;20021;-52
2023/06/05 06:11:36;;;;;;;;;;;;;;;33.67;32.27;96287.72;4968018;28;20343;-46
2023/06/05 06:14:06;;;;;;;;;;;;;;;34.88;31.37;96289.44;4962052;28;19957;-46
2023/06/05 06:16:34;;;;;;;;;;;;;;;35.43;30.77;96283.13;4969212;28;19968;-47
2023/06/05 06:19:03;;;;;;;;;;;;;;;34.66;31.58;96289.34;4962173;28;19965;-48
2023/06/05 06:21:32;;;;;;;;;;;;;;;34.64;31.39;96291.56;4967695;28;19953;-45
2023/06/05 06:24:01;;;;;;;;;;;;;;;34.64;32.25;96288.84;4962628;28;19961;-54
2023/06/05 06:26:30;;;;;;;;;;;;;;;35.08;30.72;96292.94;4961874;28;19962;-45
2023/06/05 06:28:59;;;;;;;;;;;;;;;34.93;31.06;96296.78;4964092;28;19993;-48
2023/06/05 06:31:29;;;;;;;;;;;;;;;34.19;32.33;96297.56;4961123;28;19957;-47
2023/06/05 06:33:57;;;;;;;;;;;;;;;33.88;32.54;96289.00;4957431;28;19969;-47
2023/06/05 06:36:26;;;;;;;;;;;;;;;34.86;32.30;96288.97;4967817;28;19957;-49
2023/06/05 06:38:54;;;;;;;;;;;;;;;33.87;32.67;96297.53;4956186;28;20000;-46
2023/06/05 06:41:25;;;;;;;;;;;;;;;34.21;32.64;96286.31;4958092;28;19968;-49
2023/06/05 06:43:53;;;;;;;;;;;;;;;34.30;32.24;96291.91;4961237;28;20010;-50
2023/06/05 06:46:21;;;;;;;;;;;;;;;34.22;32.01;96294.22;4962592;28;20412;-49
2023/06/05 06:48:51;;;;;;;;;;;;;;;33.35;33.25;96302.91;4967608;28;19971;-52
2023/06/05 06:51:21;;;;;;;;;;;;;;;33.77;32.87;96299.31;4969181;28;19957;-48
2023/06/05 06:53:50;;;;;;;;;;;;;;;33.67;32.71;96307.66;4965393;28;20371;-48
2023/06/05 06:56:18;;;;;;;;;;;;;;;32.99;33.43;96311.53;4965803;28;19973;-46
2023/06/05 06:58:46;;;;;;;;;;;;;;;33.54;33.03;96301.00;4957032;28;19969;-46
2023/06/05 07:01:15;;;;;;;;;;;;;;;34.43;32.12;96310.28;4956248;28;20394;-48
2023/06/05 07:03:43;;;;;;;;;;;;;;;34.63;31.56;96303.66;4957214;28;19964;-48
2023/06/05 07:06:13;;;;;;;;;;;;;;;33.51;32.84;96306.25;4961752;28;20357;-50
2023/06/05 07:08:41;;;;;;;;;;;;;;;32.99;33.49;96311.53;4961701;28;20061;-46
2023/06/05 07:11:09;;;;;;;;;;;;;;;33.75;33.18;96312.44;4959016;28;19957;-49
2023/06/05 07:13:37;;;;;;;;;;;;;;;33.04;34.04;96318.88;4956677;28;19961;-47
2023/06/05 07:16:05;;;;;;;;;;;;;;;34.71;32.58;96311.16;4968102;28;20398;-47
2023/06/05 07:18:33;;;;;;;;;;;;;;;33.47;33.41;96313.41;4955198;28;19965;-49
2023/06/05 07:21:01;;;;;;;;;;;;;;;32.76;33.99;96307.69;4962567;28;19965;-47
2023/06/05 07:23:32;;;;;;;;;;;;;;;34.53;32.53;96306.59;4965278;28;19968;-45
2023/06/05 07:26:00;;;;;;;;;;;;;;;33.82;32.70;96303.06;4958059;28;19957;-45
2023/06/05 07:28:28;;;;;;;;;;;;;;;35.21;31.44;96302.25;4964703;28;19973;-46
2023/06/05 07:30:56;;;;;;;;;;;;;;;35.18;31.25;96303.69;4963088;28;20430;-46
2023/06/05 07:33:24;;;;;;;;;;;;;;;35.39;31.21;96298.56;4962222;28;19969;-49
2023/06/05 07:35:59;;;;;;;;;;;;;;;35.29;31.22;96305.09;4957464;28;19953;-47
2023/06/05 07:38:27;;;;;;;;;;;;;;;34.33;32.16;96307.72;4964218;28;20521;-48
2023/06/05 07:40:58;;;;;;;;;;;;;;;35.36;31.52;96305.47;4961849;28;19957;-51
2023/06/05 07:43:26;;;;;;;;;;;;;;;34.17;32.31;96305.25;4962859;28;19965;-45
2023/06/05 07:45:54;;;;;;;;;;;;;;;34.98;31.62;96304.88;4959113;28;19961;-45
2023/06/05 07:48:22;;;;;;;;;;;;;;;33.92;32.53;96303.72;4958539;28;19989;-51
2023/06/05 07:50:50;;;;;;;;;;;;;;;34.80;31.86;96303.06;4957590;28;19961;-47
2023/06/05 07:53:18;;;;;;;;;;;;;;;34.80;31.29;96300.31;4964066;28;20077;-47
2023/06/05 07:55:46;;;;;;;;;;;;;;;36.23;30.38;96297.19;4968906;28;19977;-48
2023/06/05 07:58:17;;;;;;;;;;;;;;;35.85;30.59;96301.09;4964126;28;19999;-51
2023/06/05 08:00:47;;;;;;;;;;;;;;;35.21;31.64;96297.59;4960201;28;19958;-49
2023/06/05 08:03:19;;;;;;;;;;;;;;;34.76;31.83;96297.38;4967635;28;19965;-45
2023/06/05 08:05:48;;;;;;;;;;;;;;;34.40;32.09;96300.75;4957299;28;19969;-53
2023/06/05 08:08:16;;;;;;;;;;;;;;;35.84;30.69;96291.22;4962295;28;19961;-49
2023/06/05 08:10:44;;;;;;;;;;;;;;;35.70;30.38;96298.72;4966837;28;19965;-49
2023/06/05 08:13:13;;;;;;;;;;;;;;;35.47;30.54;96297.81;4959510;28;19961;-49
2023/06/05 08:15:42;;;;;;;;;;;;;;;35.31;31.30;96300.13;4967103;28;20479;-49
2023/06/05 08:18:10;;;;;;;;;;;;;;;35.44;30.75;96295.69;4971865;28;19961;-49
2023/06/05 08:20:40;;;;;;;;;;;;;;;35.74;30.86;96290.66;4967005;28;19958;-51
2023/06/05 08:23:08;;;;;;;;;;;;;;;35.78;30.38;96291.66;4970539;28;19964;-46
2023/06/05 08:25:36;;;;;;;;;;;;;;;35.04;31.12;96298.22;4964083;28;19961;-44
2023/06/05 08:28:04;;;;;;;;;;;;;;;35.37;31.09;96284.34;4968161;28;19961;-53
2023/06/05 08:30:33;;;;;;;;;;;;;;;35.77;30.75;96288.13;4965526;28;19961;-44
2023/06/05 08:33:03;;;;;;;;;;;;;;;36.76;29.31;96288.94;4960364;28;20632;-50
2023/06/05 08:35:31;;;;;;;;;;;;;;;36.52;28.98;96286.56;4971777;28;19966;-49
2023/06/05 08:37:59;;;;;;;;;;;;;;;37.29;28.87;96287.16;4963638;28;19969;-47
2023/06/05 08:40:28;;;;;;;;;;;;;;;35.57;31.24;96297.63;4964348;28;19960;-56
2023/06/05 08:42:56;;;;;;;;;;;;;;;35.67;30.34;96282.88;4963892;28;19957;-49
2023/06/05 08:45:24;;;;;;;;;;;;;;;37.20;28.71;96283.56;4963748;28;20601;-50
2023/06/05 08:47:52;;;;;;;;;;;;;;;37.43;28.41;96276.84;4972280;28;20398;-46
2023/06/05 08:50:22;;;;;;;;;;;;;;;36.98;29.01;96284.50;4969072;28;20436;-47
2023/06/05 08:52:50;;;;;;;;;;;;;;;37.13;28.77;96288.72;4968567;28;20101;-49
2023/06/05 08:55:18;;;;;;;;;;;;;;;35.33;30.64;96288.81;4967826;28;19969;-52
2023/06/05 08:57:46;;;;;;;;;;;;;;;35.09;31.28;96286.31;4960990;28;19957;-49
2023/06/05 09:00:14;;;;;;;;;;;;;;;34.76;31.08;96291.06;4959597;28;19960;-50
2023/06/05 09:02:46;;;;;;;;;;;;;;;36.76;29.21;96288.94;4961685;28;19958;-52
2023/06/05 09:05:15;;;;;;;;;;;;;;;35.86;29.67;96282.72;4965423;28;20429;-51
2023/06/05 09:07:44;;;;;;;;;;;;;;;36.44;30.02;96290.03;4970575;28;19957;-49
2023/06/05 09:10:25;;;;;;;;;;;;;;;36.47;29.71;96288.59;4964793;28;19965;-48
2023/06/05 09:12:53;;;;;;;;;;;;;;;36.70;29.88;96283.88;4965485;28;19957;-51
2023/06/05 09:15:22;;;;;;;;;;;;;;;37.38;28.66;96274.22;4963964;28;20363;-45
2023/06/05 09:18:02;;;;;;;;;;;;;;;38.04;28.54;96271.38;4956873;28;19968;-50
2023/06/05 09:20:31;;;;;;;;;;;;;;;36.97;28.50;96274.63;4954402;28;20566;-49
2023/06/05 09:23:00;;;;;;;;;;;;;;;37.09;28.50;96274.81;4959238;28;19965;-49
2023/06/05 09:25:44;;;;;;;;;;;;;;;37.32;29.04;96271.97;4957112;28;19969;-47
2023/06/05 09:28:12;;;;;;;;;;;;;;;36.25;29.05;96273.78;4966262;28;19958;-47
2023/06/05 09:30:53;;;;;;;;;;;;;;;38.71;27.48;96264.38;4962864;28;19965;-46
2023/06/05 09:33:22;;;;;;;;;;;;;;;37.57;27.79;96268.44;4966145;28;19960;-47
2023/06/05 09:36:01;;;;;;;;;;;;;;;37.86;27.48;96269.75;4965108;28;20067;-49
2023/06/05 09:38:31;;;;;;;;;;;;;;;38.12;27.15;96266.97;4958824;28;19954;-49
2023/06/05 09:41:03;;;;;;;;;;;;;;;38.14;26.93;96268.28;4964919;28;19954;-46
2023/06/05 09:43:31;;;;;;;;;;;;;;;39.15;25.71;96260.28;4960358;28;20371;-46
2023/06/05 09:45:59;;;;;;;;;;;;;;;37.03;27.93;96271.44;4959712;28;19968;-46
2023/06/05 09:48:27;;;;;;;;;;;;;;;37.20;27.83;96267.06;4965272;28;19968;-47
2023/06/05 09:50:56;;;;;;;;;;;;;;;38.53;27.17;96260.09;4957881;28;19972;-47
2023/06/05 09:53:24;;;;;;;;;;;;;;;36.07;29.32;96270.13;4963434;28;19961;-47
2023/06/05 09:55:54;;;;;;;;;;;;;;;38.61;27.55;96253.72;4964982;28;19996;-49
2023/06/05 09:58:22;;;;;;;;;;;;;;;38.00;27.34;96256.63;4961505;28;19973;-47
2023/06/05 10:00:50;;;;;;;;;;;;;;;38.51;27.38;96259.59;4963087;28;19965;-45
2023/06/05 10:03:18;;;;;;;;;;;;;;;38.86;26.75;96258.34;4966509;28;20685;-47
2023/06/05 10:05:46;;;;;;;;;;;;;;;39.33;26.22;96241.69;4969013;28;19968;-46
2023/06/05 10:08:16;;;;;;;;;;;;;;;38.34;26.63;96247.47;4966267;28;20576;-44
2023/06/05 10:10:44;;;;;;;;;;;;;;;39.67;25.88;96245.31;4968381;28;19949;-48
2023/06/05 10:13:14;;;;;;;;;;;;;;;38.28;26.61;96246.03;4966298;28;20362;-46
2023/06/05 10:15:43;;;;;;;;;;;;;;;39.79;25.65;96239.91;4966240;28;19953;-46
2023/06/05 10:18:11;;;;;;;;;;;;;;;39.40;26.19;96246.66;4957523;28;19972;-46
2023/06/05 10:20:39;;;;;;;;;;;;;;;38.56;27.25;96243.69;4962547;28;19954;-49
2023/06/05 10:23:07;;;;;;;;;;;;;;;37.14;28.62;96246.38;4956245;28;19960;-48
2023/06/05 10:25:36;;;;;;;;;;;;;;;38.61;26.89;96235.25;4952656;28;19950;-47
2023/06/05 10:28:07;;;;;;;;;;;;;;;38.56;26.44;96234.63;4957345;28;20465;-48
2023/06/05 10:30:47;;;;;;;;;;;;;;;39.28;26.61;96227.31;4958619;28;19957;-48
2023/06/05 10:33:21;;;;;;;;;;;;;;;36.12;28.75;96237.03;4960801;28;20343;-47
2023/06/05 10:35:50;;;;;;;;;;;;;;;38.07;27.47;96229.41;4963426;28;19961;-53
2023/06/05 10:38:19;;;;;;;;;;;;;;;36.09;29.26;96240.41;4959557;28;20363;-48
2023/06/05 10:40:47;;;;;;;;;;;;;;;37.09;28.04;96239.06;4968535;28;19968;-46
2023/06/05 10:43:24;;;;;;;;;;;;;;;37.49;27.16;96226.03;4958077;28;19988;-48
2023/06/05 10:45:54;;;;;;;;;;;;;;;37.02;27.68;96234.03;4963254;28;19969;-51
2023/06/05 10:48:56;;;;;;;;;;;;;;;37.86;27.58;96231.22;4956914;28;19972;-49
2023/06/05 10:51:37;;;;;;;;;;;;;;;37.72;27.45;96231.38;4957199;28;19966;-52
2023/06/05 10:54:05;;;;;;;;;;;;;;;37.55;27.25;96237.69;4960133;28;20682;-49
2023/06/05 10:56:53;;;;;;;;;;;;;;;37.91;26.67;96231.84;4966858;28;19972;-47
2023/06/05 10:59:21;;;;;;;;;;;;;;;38.46;26.42;96228.34;4960205;28;19969;-49
2023/06/05 11:02:04;;;;;;;;;;;;;;;37.77;27.07;96225.69;4966266;28;19961;-50
2023/06/05 11:04:47;;;;;;;;;;;;;;;38.29;26.39;96224.81;4958795;28;19968;-51
2023/06/05 11:07:18;;;;;;;;;;;;;;;38.55;26.37;96224.75;4962980;28;19960;-46
2023/06/05 11:10:01;;;;;;;;;;;;;;;38.63;26.30;96229.41;4960750;28;19970;-46
2023/06/05 11:12:42;;;;;;;;;;;;;;;38.19;26.97;96226.75;4962152;28;19965;-47
2023/06/05 11:15:11;;;;;;;;;;;;;;;37.74;27.11;96229.09;4964529;28;20053;-47
2023/06/05 11:17:39;;;;;;;;;;;;;;;37.74;27.31;96223.59;4960979;28;20607;-47
2023/06/05 11:20:09;;;;;;;;;;;;;;;39.01;26.06;96218.34;4959366;28;19954;-49
2023/06/05 11:22:53;;;;;;;;;;;;;;;38.47;26.26;96215.34;4956952;28;19953;-50
2023/06/05 11:25:30;;;;;;;;;;;;;;;38.58;26.42;96216.63;4963337;28;20207;-47
2023/06/05 11:28:01;;;;;;;;;;;;;;;37.82;26.90;96221.97;4967943;28;19929;-50
2023/06/05 11:30:32;;;;;;;;;;;;;;;39.20;25.82;96206.88;4968320;28;20456;-48
2023/06/05 11:33:14;;;;;;;;;;;;;;;39.58;24.98;96205.97;4970040;28;19929;-48
2023/06/05 11:35:44;;;;;;;;;;;;;;;39.62;25.28;96210.44;4967915;28;19970;-45
2023/06/05 11:38:12;;;;;;;;;;;;;;;39.32;25.28;96203.41;4955234;28;20449;-55
2023/06/05 11:40:42;;;;;;;;;;;;;;;41.34;23.72;96191.34;4969637;28;19949;-46
2023/06/05 11:43:10;;;;;;;;;;;;;;;39.38;25.58;96194.59;4959762;28;19960;-49
2023/06/05 11:45:39;;;;;;;;;;;;;;;39.77;25.28;96202.72;4962078;28;19969;-51
2023/06/05 11:48:10;;;;;;;;;;;;;;;39.75;25.50;96202.22;4960659;28;20534;-51
2023/06/05 11:50:39;;;;;;;;;;;;;;;39.19;26.17;96199.72;4967651;28;19980;-53
2023/06/05 11:53:09;;;;;;;;;;;;;;;39.47;25.37;96207.50;4963688;28;19957;-48
2023/06/05 11:55:54;;;;;;;;;;;;;;;37.78;27.03;96206.09;4964779;28;20008;-50
2023/06/05 11:58:23;;;;;;;;;;;;;;;37.32;28.39;96193.00;4959393;28;20406;-47
2023/06/05 12:00:52;;;;;;;;;;;;;;;37.72;27.87;96195.59;4959356;28;20046;-47
2023/06/05 12:03:20;;;;;;;;;;;;;;;38.17;28.06;96195.19;4963735;28;19969;-51
2023/06/05 12:05:49;;;;;;;;;;;;;;;39.16;27.31;96189.38;4965146;28;20431;-48
2023/06/05 12:08:25;;;;;;;;;;;;;;;36.90;29.37;96202.78;4961129;28;20436;-52
2023/06/05 12:10:53;;;;;;;;;;;;;;;37.85;28.16;96194.59;4962794;28;19960;-51
2023/06/05 12:13:21;;;;;;;;;;;;;;;36.26;29.78;96203.19;4976279;28;19961;-47
2023/06/05 12:15:59;;;;;;;;;;;;;;;38.19;28.43;96192.91;4971066;28;19965;-48
2023/06/05 12:18:31;;;;;;;;;;;;;;;39.47;27.04;96194.50;4966203;28;19980;-52
2023/06/05 12:21:11;;;;;;;;;;;;;;;;;;;;;
2023/06/05 12:24:22;;;;;;;;;;;;;;;38.02;28.94;96182.75;4969993;28;19937;-48
2023/06/05 12:26:53;;;;;;;;;;;;;;;36.66;30.09;96194.97;4958025;28;19977;-48
2023/06/05 12:29:23;;;;;;;;;;;;;;;36.48;30.44;96196.81;4966726;28;19953;-46
2023/06/05 12:31:52;;;;;;;;;;;;;;;37.12;29.77;96186.19;4961540;28;19961;-44
2023/06/05 12:34:35;;;;;;;;;;;;;;;35.67;31.45;96195.06;4967271;28;19972;-46
2023/06/05 12:37:25;;;;;;;;;;;;;;;36.81;30.25;96180.78;4953089;28;20375;-46
2023/06/05 12:39:55;;;;;;;;;;;;;;;36.56;30.42;96187.84;4963030;28;20397;-48
2023/06/05 12:42:25;;;;;;;;;;;;;;;36.63;30.02;96190.13;4976060;28;20049;-55
2023/06/05 12:44:57;;;;;;;;;;;;;;;37.71;28.63;96175.50;4970267;28;20374;-44
2023/06/05 12:47:26;;;;;;;;;;;;;;;38.46;28.03;96169.66;4968192;28;19950;-47
2023/06/05 12:49:56;;;;;;;;;;;;;;;37.46;28.94;96174.41;4960378;28;19965;-50
2023/06/05 12:52:25;;;;;;;;;;;;;;;37.15;29.42;96185.53;4974116;28;19964;-47
2023/06/05 12:54:54;;;;;;;;;;;;;;;38.69;27.68;96170.19;4961523;28;20478;-46
2023/06/05 12:57:22;;;;;;;;;;;;;;;36.72;29.88;96183.53;4967840;28;19957;-48
2023/06/05 12:59:53;;;;;;;;;;;;;;;37.16;29.53;96175.34;4960806;28;19972;-44
2023/06/05 13:02:21;;;;;;;;;;;;;;;37.85;28.53;96183.56;4958063;28;20558;-45